Chilik Southeast Airfield

Jump to: basic info | weather | comments

Related pages: nearby airports | nearby navaids

Basic information (top)

Location: lon 43.223598, lat 78.732399, elev 4,497 ft / 1,371 m msl
Status: small_airport

Weather (top)

Current conditions for Almaty Airport 74nm (138km) W (rec'd 2014/10/21 01:30Z):

UAAA 210130Z 25009MPS 9999 SCT019CB OVC100 13/09 Q1021 R88/65D TEMPO 25012MPS

Airport forecast for Almaty Airport 74nm (138km) W (rec'd 2014/10/20 00:18Z):

TAF TAF UAAA 202300Z 2100/2124 24006MPS 5000 BR FU BKN030CB BKN100 TX12/2108Z TN08/2101Z 
      TEMPO 2100/2106 VRB15MPS TSRA SQ BKN010CB OVC100 
      TEMPO 2106/2118 32010MPS 3000 SHRA BKN006 OVC010CB

Latest comments (top)

Spelling: OK oK its Kazakhstan♄, so you have a ... [read]

Airfield: I came across this airfield on Google, ... [read]

More... (top)

See also NOTAMs and nearby airports and navaids, or visit the Chilik Southeast Airfield page at the main OurAirports website..